Time;durP1;ratioP1;P1;durP2;ratioP2;P2;SDS_P1;SDS_P2;PMS_P1;PMS_P2;Temp;Humidity;BMP_temperature;BMP_pressure;BME280_temperature;BME280_humidity;BME280_pressure;Samples;Min_cycle;Max_cycle;Signal;HPM_P1;HPM_P2
2022/02/09 00:00:26;;;;;;;3.10;2.75;;;8.80;99.90;;;;;;4993745;28;20314;-90
2022/02/09 00:03:12;;;;;;;2.70;2.33;;;8.80;99.90;;;;;;4995554;28;20684;-90
2022/02/09 00:08:08;;;;;;;2.67;2.47;;;8.80;99.90;;;;;;4998223;28;20184;-89
2022/02/09 00:10:35;;;;;;;2.45;2.10;;;8.80;99.90;;;;;;4997450;28;20243;-90
2022/02/09 00:16:03;;;;;;;5.97;2.63;;;8.70;99.90;;;;;;4995860;28;20227;-89
2022/02/09 00:18:50;;;;;;;2.60;2.40;;;8.60;99.90;;;;;;4995486;28;20195;-90
2022/02/09 00:32:10;;;;;;;2.58;2.00;;;8.60;99.90;;;;;;4995403;28;20195;-90
2022/02/09 00:42:45;;;;;;;3.55;1.77;;;8.60;99.90;;;;;;4995671;28;20684;-90
2022/02/09 01:51:15;;;;;;;3.10;2.70;;;8.80;99.90;;;;;;4998378;28;20223;-90
2022/02/09 01:56:27;;;;;;;3.47;2.63;;;8.80;99.90;;;;;;4998524;28;20253;-89
2022/02/09 01:58:54;;;;;;;3.63;2.50;;;8.80;99.90;;;;;;4996646;28;20241;-89
2022/02/09 02:01:19;;;;;;;3.85;2.88;;;8.80;99.90;;;;;;4996864;28;20294;-89
2022/02/09 02:03:45;;;;;;;4.10;2.77;;;8.80;99.90;;;;;;4996840;28;20242;-89
2022/02/09 02:06:16;;;;;;;4.13;2.97;;;8.80;99.90;;;;;;4996800;28;20203;-90
2022/02/09 02:08:44;;;;;;;3.22;2.58;;;8.80;99.90;;;;;;4997486;28;20226;-89
2022/02/09 02:16:34;;;;;;;5.65;3.42;;;8.80;99.90;;;;;;4997926;28;20250;-90
2022/02/09 02:19:05;;;;;;;3.55;2.67;;;8.90;99.90;;;;;;4996301;28;20215;-90
2022/02/09 02:40:28;;;;;;;4.95;2.80;;;8.80;99.90;;;;;;5010716;28;20223;-90
2022/02/09 02:46:16;;;;;;;3.35;2.75;;;8.80;99.90;;;;;;5002258;28;20258;-90
2022/02/09 03:12:42;;;;;;;5.28;3.65;;;8.90;99.90;;;;;;4996939;28;20163;-90
2022/02/09 03:17:46;;;;;;;4.38;2.90;;;8.90;99.90;;;;;;4997144;28;20223;-90
2022/02/09 03:23:00;;;;;;;4.78;3.08;;;8.90;99.90;;;;;;4996622;28;20562;-90
2022/02/09 03:25:46;;;;;;;8.23;3.53;;;8.90;99.90;;;;;;4995095;28;20679;-90
2022/02/09 03:31:13;;;;;;;3.70;3.35;;;8.90;99.90;;;;;;4996809;28;20619;-90
2022/02/09 03:47:22;;;;;;;3.53;2.80;;;9.10;99.90;;;;;;4996401;28;20188;-90
2022/02/09 03:58:15;;;;;;;4.93;2.90;;;9.10;99.90;;;;;;4994882;28;20646;-89
2022/02/09 04:00:44;;;;;;;3.45;2.83;;;9.10;99.90;;;;;;4994645;28;20208;-89
2022/02/09 04:03:14;;;;;;;3.15;2.72;;;9.10;99.90;;;;;;4994517;28;20661;-89
2022/02/09 04:05:40;;;;;;;6.25;3.30;;;9.10;99.90;;;;;;4994718;28;20204;-90
2022/02/09 04:08:12;;;;;;;4.07;2.88;;;9.10;99.90;;;;;;4994299;28;20556;-90
2022/02/09 04:10:51;;;;;;;3.65;3.30;;;9.10;99.90;;;;;;4994580;28;20230;-90
2022/02/09 04:13:57;;;;;;;3.83;3.13;;;9.10;99.90;;;;;;4996234;28;20206;-88
2022/02/09 04:19:20;;;;;;;4.32;2.50;;;9.00;99.90;;;;;;4997325;28;20410;-89
2022/02/09 04:38:31;;;;;;;3.95;3.20;;;8.70;99.90;;;;;;4998539;28;20234;-90
2022/02/09 04:54:31;;;;;;;3.30;2.58;;;8.70;99.90;;;;;;5001249;28;20190;-90
2022/02/09 04:57:03;;;;;;;3.53;2.60;;;8.70;99.90;;;;;;5000549;28;20550;-89
2022/02/09 05:26:39;;;;;;;6.70;4.00;;;8.60;99.90;;;;;;5001973;28;20195;-88
2022/02/09 05:29:04;;;;;;;3.83;2.95;;;8.70;99.90;;;;;;5000522;28;20194;-89
2022/02/09 05:31:30;;;;;;;4.07;3.67;;;8.70;99.90;;;;;;4998704;28;20203;-89
2022/02/09 05:33:56;;;;;;;4.03;2.80;;;8.80;99.90;;;;;;4999945;28;20421;-90
2022/02/09 05:36:22;;;;;;;4.17;2.60;;;8.90;99.90;;;;;;4999797;28;20499;-89
2022/02/09 05:38:47;;;;;;;3.87;2.70;;;9.00;99.90;;;;;;5000993;28;20239;-89
2022/02/09 05:41:13;;;;;;;4.07;2.20;;;9.00;99.90;;;;;;4999880;28;20211;-89
2022/02/09 05:43:39;;;;;;;3.57;2.93;;;9.10;99.90;;;;;;5009008;28;20188;-89
2022/02/09 05:51:30;;;;;;;4.95;2.83;;;9.00;99.90;;;;;;5000966;28;20235;-90
2022/02/09 05:56:59;;;;;;;4.28;2.58;;;8.90;99.90;;;;;;4998305;28;20191;-88
2022/02/09 05:59:28;;;;;;;2.47;2.28;;;8.90;99.90;;;;;;4992140;28;20277;-88
2022/02/09 06:01:56;;;;;;;3.25;2.40;;;9.00;99.90;;;;;;4994035;28;20180;-90
2022/02/09 06:04:22;;;;;;;2.85;2.63;;;9.10;99.90;;;;;;5000624;28;20188;-89
2022/02/09 06:06:48;;;;;;;3.40;2.92;;;9.20;99.90;;;;;;5000516;28;20612;-89
2022/02/09 06:09:14;;;;;;;3.40;2.80;;;9.30;99.90;;;;;;5011190;28;20239;-88
2022/02/09 06:22:04;;;;;;;4.32;3.05;;;9.50;99.90;;;;;;5000217;28;20660;-89
2022/02/09 06:24:30;;;;;;;3.17;2.83;;;9.50;99.90;;;;;;4982249;28;20207;-90
2022/02/09 06:26:56;;;;;;;4.13;2.90;;;9.40;99.90;;;;;;4978474;28;20184;-90
2022/02/09 06:29:22;;;;;;;4.10;3.43;;;9.30;99.90;;;;;;4978762;28;20583;-90
2022/02/09 06:31:49;;;;;;;6.78;3.30;;;9.20;99.90;;;;;;4977267;28;20517;-89
2022/02/09 06:34:19;;;;;;;9.20;4.05;;;9.10;99.90;;;;;;4988505;28;20555;-90
2022/02/09 06:36:57;;;;;;;4.97;3.00;;;9.00;99.90;;;;;;4979922;28;20176;-90
2022/02/09 06:39:22;;;;;;;3.95;3.25;;;9.00;99.90;;;;;;4976095;28;20251;-90
2022/02/09 06:41:48;;;;;;;3.40;3.10;;;8.90;99.90;;;;;;4986954;28;20629;-90
2022/02/09 06:44:14;;;;;;;5.63;3.47;;;8.90;99.90;;;;;;4993077;28;20942;-89
2022/02/09 06:46:40;;;;;;;4.27;3.20;;;8.80;99.90;;;;;;4992565;28;20188;-89
2022/02/09 06:49:08;;;;;;;3.08;2.53;;;8.80;99.90;;;;;;4995395;28;20417;-89
2022/02/09 06:51:39;;;;;;;3.70;2.65;;;8.80;99.90;;;;;;4993788;28;20212;-89
2022/02/09 06:54:14;;;;;;;3.35;2.60;;;8.70;99.90;;;;;;4993760;28;20270;-90
2022/02/09 06:57:05;;;;;;;4.30;2.55;;;8.80;99.90;;;;;;4994748;28;20645;-89
2022/02/09 06:59:30;;;;;;;3.28;2.97;;;8.80;99.90;;;;;;4989253;28;20664;-90
2022/02/09 07:02:04;;;;;;;4.73;2.97;;;8.80;99.90;;;;;;4974081;28;20219;-90
2022/02/09 07:04:31;;;;;;;3.10;2.80;;;8.90;99.90;;;;;;4973697;28;20168;-89
2022/02/09 07:06:56;;;;;;;5.32;3.25;;;8.90;99.90;;;;;;4984701;28;20184;-89
2022/02/09 07:09:23;;;;;;;5.87;3.47;;;9.00;99.90;;;;;;4983407;28;20242;-89
2022/02/09 07:11:50;;;;;;;4.07;3.00;;;9.00;99.90;;;;;;5003882;28;20449;-89
2022/02/09 07:14:21;;;;;;;4.10;3.13;;;9.10;99.90;;;;;;4985570;28;20271;-90
2022/02/09 07:16:47;;;;;;;4.88;3.72;;;9.20;99.90;;;;;;4989540;28;20176;-90
2022/02/09 07:19:13;;;;;;;6.05;3.65;;;9.20;99.90;;;;;;4991868;28;20238;-89
2022/02/09 07:21:40;;;;;;;8.37;4.23;;;9.30;99.90;;;;;;4992057;28;20193;-88
2022/02/09 07:24:11;;;;;;;9.25;4.10;;;9.40;99.90;;;;;;4988632;28;20177;-90
2022/02/09 07:29:13;;;;;;;7.95;5.45;;;9.60;99.90;;;;;;4990619;28;20225;-88
2022/02/09 07:31:40;;;;;;;4.28;3.45;;;9.70;99.90;;;;;;4991509;28;20275;-89
2022/02/09 07:34:10;;;;;;;3.72;3.22;;;9.80;99.90;;;;;;4990971;28;20198;-89
2022/02/09 07:36:38;;;;;;;4.57;3.50;;;10.00;99.90;;;;;;4993255;28;20194;-91
2022/02/09 07:39:05;;;;;;;5.15;3.45;;;10.10;99.90;;;;;;4994353;28;20344;-89
2022/02/09 07:41:31;;;;;;;5.50;3.85;;;10.40;99.90;;;;;;4993296;28;20207;-90
2022/02/09 07:49:10;;;;;;;5.35;3.85;;;10.90;99.90;;;;;;4993286;28;20191;-91
2022/02/09 07:51:43;;;;;;;3.60;3.10;;;11.10;99.90;;;;;;4993143;28;20223;-89
2022/02/09 07:54:11;;;;;;;4.00;3.60;;;11.30;99.90;;;;;;4993155;28;20164;-89
2022/02/09 07:56:42;;;;;;;4.18;3.38;;;11.60;99.90;;;;;;4991848;28;20191;-90
2022/02/09 07:59:12;;;;;;;6.70;3.60;;;11.90;99.90;;;;;;4988780;28;20608;-90
2022/02/09 08:01:39;;;;;;;5.15;3.22;;;12.20;99.90;;;;;;4992956;28;20180;-90
2022/02/09 08:04:06;;;;;;;4.13;3.72;;;12.30;99.90;;;;;;4993722;28;20261;-90
2022/02/09 08:06:32;;;;;;;3.33;2.90;;;12.30;99.90;;;;;;4982792;28;20204;-89
2022/02/09 08:09:03;;;;;;;6.13;5.03;;;12.20;99.90;;;;;;4997757;28;20214;-91
2022/02/09 08:31:00;;;;;;;22.50;10.97;;;13.40;99.90;;;;;;4993015;28;20806;-90
2022/02/09 08:33:26;;;;;;;17.70;7.97;;;13.70;99.90;;;;;;4983807;28;20481;-90
2022/02/09 08:35:56;;;;;;;22.10;9.10;;;13.60;99.90;;;;;;4977446;28;21061;-88
2022/02/09 08:38:22;;;;;;;6.07;4.00;;;13.50;99.90;;;;;;4999228;28;20400;-90
2022/02/09 08:40:48;;;;;;;21.80;10.30;;;13.40;99.90;;;;;;4989621;28;20844;-89
2022/02/09 08:43:14;;;;;;;7.50;4.33;;;13.20;99.90;;;;;;4991226;28;20192;-89
2022/02/09 08:45:42;;;;;;;10.00;6.07;;;13.10;99.90;;;;;;4991380;28;20457;-88
2022/02/09 08:48:08;;;;;;;6.70;4.60;;;13.10;99.90;;;;;;4993956;28;20442;-88
2022/02/09 08:50:34;;;;;;;5.97;3.50;;;13.10;99.90;;;;;;4993927;28;20922;-89
2022/02/09 08:53:00;;;;;;;3.63;3.33;;;13.10;99.90;;;;;;4989976;28;20442;-88
2022/02/09 08:55:27;;;;;;;5.03;3.55;;;13.10;99.90;;;;;;5008671;28;20871;-88
2022/02/09 08:57:53;;;;;;;3.47;3.17;;;13.10;99.90;;;;;;4983516;28;20242;-90
2022/02/09 09:00:25;;;;;;;5.80;4.00;;;13.10;99.90;;;;;;4983815;28;20972;-89
2022/02/09 09:03:06;;;;;;;4.27;3.30;;;13.20;99.90;;;;;;4988330;28;21018;-88
2022/02/09 09:05:46;;;;;;;3.97;3.20;;;13.40;99.90;;;;;;4989516;28;20998;-88
2022/02/09 09:08:38;;;;;;;6.23;3.77;;;13.70;99.90;;;;;;4985871;28;20444;-89
2022/02/09 09:41:46;;;;;;;3.70;3.40;;;18.50;99.90;;;;;;4992673;28;20479;-90
2022/02/09 10:02:52;;;;;;;5.73;3.87;;;23.50;90.40;;;;;;4988159;28;20434;-90
2022/02/09 10:05:49;;;;;;;4.20;2.63;;;23.60;88.70;;;;;;4992718;28;21006;-88
2022/02/09 10:34:05;;;;;;;3.10;2.80;;;20.60;90.20;;;;;;4987895;28;20452;-91
2022/02/09 10:37:02;;;;;;;4.40;4.00;;;20.30;90.60;;;;;;5000612;28;20456;-90
2022/02/09 10:40:04;;;;;;;3.50;2.70;;;19.90;90.80;;;;;;4988867;28;20471;-91
2022/02/09 10:43:00;;;;;;;5.30;4.53;;;19.50;91.10;;;;;;4978148;28;20439;-91
2022/02/09 10:45:48;;;;;;;3.23;2.90;;;19.30;92.10;;;;;;4977131;28;20459;-90
2022/02/09 10:48:43;;;;;;;2.50;2.30;;;19.10;92.00;;;;;;4986928;28;20762;-90
2022/02/09 10:51:41;;;;;;;2.90;2.23;;;18.90;91.20;;;;;;5003138;28;20525;-90
2022/02/09 10:54:18;;;;;;;2.63;2.43;;;18.90;91.90;;;;;;4995699;28;20433;-90
2022/02/09 10:56:57;;;;;;;2.93;2.47;;;18.80;91.70;;;;;;4993166;28;20446;-89
2022/02/09 10:59:28;;;;;;;4.33;3.80;;;18.70;92.10;;;;;;4989204;28;20470;-90
2022/02/09 11:01:55;;;;;;;2.20;2.00;;;18.60;92.20;;;;;;4994119;28;20578;-90
2022/02/09 11:04:21;;;;;;;6.43;2.87;;;18.60;91.90;;;;;;4993270;28;20471;-90
2022/02/09 11:06:49;;;;;;;3.20;2.70;;;18.50;91.80;;;;;;4992439;28;20532;-89
2022/02/09 11:09:17;;;;;;;13.80;7.07;;;18.50;92.10;;;;;;4991719;28;20974;-88
2022/02/09 11:11:47;;;;;;;19.20;9.50;;;18.50;93.00;;;;;;4994333;28;20449;-90
2022/02/09 11:14:16;;;;;;;8.90;5.00;;;18.40;92.50;;;;;;4985464;28;20427;-91
2022/02/09 11:16:52;;;;;;;3.73;2.63;;;18.40;93.00;;;;;;4989568;28;20443;-91
2022/02/09 11:19:19;;;;;;;2.97;2.67;;;18.40;93.30;;;;;;4992359;28;20468;-91
2022/02/09 11:21:51;;;;;;;3.17;2.83;;;18.40;93.30;;;;;;4985678;28;20496;-91
2022/02/09 11:24:21;;;;;;;2.40;2.00;;;18.40;92.60;;;;;;4990957;28;20425;-89
2022/02/09 11:32:06;;;;;;;2.43;2.23;;;18.20;92.60;;;;;;4992113;28;20878;-89
2022/02/09 11:34:52;;;;;;;2.57;2.37;;;18.10;92.40;;;;;;5000466;28;20441;-89
2022/02/09 11:37:32;;;;;;;3.17;2.20;;;17.90;92.40;;;;;;4978773;28;20453;-89
2022/02/09 11:40:18;;;;;;;2.80;2.10;;;17.80;92.70;;;;;;4983437;28;20516;-88
2022/02/09 11:42:50;;;;;;;4.47;2.53;;;17.70;93.10;;;;;;4990494;28;20441;-91
2022/02/09 11:45:41;;;;;;;4.50;2.63;;;17.60;93.20;;;;;;4985760;28;20465;-91
2022/02/09 12:10:21;;;;;;;2.90;2.60;;;17.70;93.40;;;;;;4990299;28;20577;-91
2022/02/09 12:12:53;;;;;;;3.97;2.57;;;17.70;93.60;;;;;;4989811;28;20423;-89
2022/02/09 12:15:50;;;;;;;1.93;1.73;;;17.70;94.10;;;;;;4989945;28;20465;-88
2022/02/09 12:18:30;;;;;;;2.43;2.23;;;17.80;93.70;;;;;;4983082;28;20784;-89
2022/02/09 12:21:04;;;;;;;2.80;2.60;;;17.70;93.70;;;;;;4989940;28;20476;-89
2022/02/09 12:23:40;;;;;;;3.20;2.77;;;17.70;94.00;;;;;;5001290;28;20505;-88
2022/02/09 12:26:09;;;;;;;8.80;6.53;;;17.70;93.70;;;;;;4980485;28;20568;-90
2022/02/09 12:28:38;;;;;;;9.47;7.00;;;17.70;94.10;;;;;;4983339;28;20430;-91
2022/02/09 12:31:09;;;;;;;2.50;2.27;;;17.70;94.00;;;;;;4990620;28;20450;-88
2022/02/09 12:33:41;;;;;;;2.90;2.60;;;17.70;93.60;;;;;;5001117;28;20426;-90
2022/02/09 12:36:26;;;;;;;3.10;2.40;;;17.60;93.30;;;;;;4993815;28;20453;-89
2022/02/09 12:38:58;;;;;;;4.87;3.30;;;17.60;93.40;;;;;;4991734;28;20480;-88
2022/02/09 12:41:25;;;;;;;4.03;3.60;;;17.60;93.50;;;;;;4999388;28;21131;-89
2022/02/09 12:43:52;;;;;;;2.13;2.00;;;17.60;94.10;;;;;;4990700;28;20437;-90
2022/02/09 12:46:21;;;;;;;3.03;2.30;;;17.60;93.60;;;;;;4991175;28;20465;-89
2022/02/09 12:48:49;;;;;;;2.40;2.20;;;17.60;93.60;;;;;;4992755;28;20806;-90
2022/02/09 12:51:28;;;;;;;3.73;2.50;;;17.50;93.80;;;;;;4992273;28;20910;-89
2022/02/09 12:53:55;;;;;;;4.33;2.33;;;17.50;93.90;;;;;;4990528;28;20425;-89
2022/02/09 12:56:48;;;;;;;2.37;2.17;;;17.60;94.00;;;;;;4992494;28;20461;-91
2022/02/09 12:59:17;;;;;;;5.10;2.50;;;17.60;93.80;;;;;;5002444;28;20496;-90
2022/02/09 13:01:49;;;;;;;3.40;2.20;;;17.60;93.80;;;;;;4987173;28;20449;-88
2022/02/09 13:04:34;;;;;;;2.37;2.17;;;17.60;93.60;;;;;;4990858;28;20484;-88
2022/02/09 13:07:02;;;;;;;2.67;2.23;;;17.60;93.30;;;;;;4991437;28;20450;-88
2022/02/09 13:09:28;;;;;;;2.73;2.07;;;17.60;93.30;;;;;;4991745;28;20496;-89
2022/02/09 13:11:55;;;;;;;2.30;1.50;;;17.60;93.70;;;;;;4992235;28;21199;-88
2022/02/09 13:14:32;;;;;;;3.33;1.77;;;17.50;93.20;;;;;;4996212;28;20270;-91
2022/02/09 13:19:58;;;;;;;2.63;2.43;;;17.40;93.60;;;;;;4989296;28;20517;-89
2022/02/09 14:07:28;;;;;;;3.07;1.80;;;17.60;93.00;;;;;;4995216;28;20464;-88
2022/02/09 14:12:45;;;;;;;3.43;1.43;;;17.70;92.70;;;;;;4987931;28;20460;-90
2022/02/09 14:17:33;;;;;;;2.80;2.03;;;17.70;92.80;;;;;;4991463;28;20527;-88
2022/02/09 14:52:24;;;;;;;10.53;7.33;;;17.50;92.60;;;;;;4995071;28;20508;-90
2022/02/09 14:57:23;;;;;;;5.03;2.40;;;17.60;92.70;;;;;;4992498;28;20532;-90
2022/02/09 15:00:06;;;;;;;3.80;2.87;;;17.70;92.70;;;;;;4987644;28;20220;-90
2022/02/09 15:02:57;;;;;;;4.93;3.20;;;17.80;92.60;;;;;;4992229;28;20438;-88
2022/02/09 15:10:48;;;;;;;9.27;6.30;;;18.00;91.90;;;;;;4989165;28;20978;-90
2022/02/09 15:16:25;;;;;;;8.30;5.40;;;18.20;92.60;;;;;;4963471;28;20513;-89
2022/02/09 15:24:11;;;;;;;2.80;2.50;;;18.80;91.30;;;;;;4992611;28;20434;-90
2022/02/09 15:26:37;;;;;;;4.20;2.80;;;18.80;91.10;;;;;;4992675;28;20518;-89
2022/02/09 15:29:03;;;;;;;2.40;2.20;;;18.80;91.00;;;;;;4991005;28;20827;-90
2022/02/09 15:31:45;;;;;;;3.10;2.50;;;18.70;91.00;;;;;;4992741;28;20217;-90
2022/02/09 15:34:25;;;;;;;4.50;3.70;;;18.50;91.00;;;;;;4987071;28;20451;-91
2022/02/09 15:37:05;;;;;;;7.20;5.37;;;18.30;91.20;;;;;;4979089;28;20810;-90
2022/02/09 15:39:35;;;;;;;13.77;8.80;;;18.00;91.60;;;;;;5006891;28;20482;-90
2022/02/09 16:09:13;;;;;;;8.93;5.80;;;15.40;95.30;;;;;;4986893;28;20437;-90
2022/02/09 16:20:06;;;;;;;22.63;20.27;;;14.90;96.80;;;;;;5001900;28;20484;-90
2022/02/09 16:22:34;;;;;;;25.47;22.87;;;14.70;97.00;;;;;;4987944;28;20413;-89
2022/02/09 16:46:38;;;;;;;31.50;24.07;;;13.50;98.90;;;;;;5015065;28;20799;-89
2022/02/09 16:49:09;;;;;;;33.47;25.77;;;13.40;99.40;;;;;;5013889;28;20620;-89
2022/02/09 16:51:56;;;;;;;37.37;27.23;;;13.30;99.40;;;;;;5012649;28;20778;-89
2022/02/09 17:21:23;;;;;;;45.70;29.83;;;12.30;99.90;;;;;;4994222;28;20755;-89
2022/02/09 17:23:51;;;;;;;58.03;39.55;;;12.10;99.90;;;;;;4987636;28;20275;-89
2022/02/09 17:26:18;;;;;;;50.85;36.63;;;12.10;99.90;;;;;;4993062;28;20302;-89
2022/02/09 17:28:58;;;;;;;53.13;34.50;;;12.00;99.90;;;;;;4993681;28;20198;-89
2022/02/09 17:31:32;;;;;;;47.60;31.90;;;11.90;99.90;;;;;;4993281;28;20218;-90
2022/02/09 17:53:20;;;;;;;58.15;41.35;;;11.70;99.90;;;;;;5009377;28;20480;-89
2022/02/09 17:58:47;;;;;;;121.97;83.13;;;11.20;99.90;;;;;;4998524;28;20191;-89
2022/02/09 18:01:15;;;;;;;36.97;32.97;;;11.10;99.90;;;;;;4997702;28;20208;-89
2022/02/09 18:03:41;;;;;;;84.10;51.65;;;11.10;99.90;;;;;;4996889;28;20186;-89
2022/02/09 18:06:15;;;;;;;76.20;52.03;;;11.10;99.90;;;;;;4997082;28;20211;-89
2022/02/09 18:14:11;;;;;;;87.03;56.30;;;11.00;99.90;;;;;;4997430;28;20176;-89
2022/02/09 18:30:24;;;;;;;119.65;75.20;;;10.50;99.90;;;;;;4991735;28;20215;-91
2022/02/09 18:38:29;;;;;;;93.28;54.67;;;10.40;99.90;;;;;;4996867;28;20260;-87
2022/02/09 18:43:43;;;;;;;73.05;48.25;;;10.10;99.90;;;;;;4985372;28;20242;-89
2022/02/09 18:57:27;;;;;;;56.08;39.83;;;9.90;99.90;;;;;;4993613;28;20210;-89
2022/02/09 19:02:34;;;;;;;63.22;40.08;;;9.70;99.90;;;;;;5002050;28;20676;-88
2022/02/09 19:05:17;;;;;;;57.50;36.28;;;9.60;99.90;;;;;;5000402;28;20272;-89
2022/02/09 19:29:29;;;;;;;49.50;38.00;;;9.40;99.90;;;;;;5111399;27;20599;-67
2022/02/09 19:32:15;;;;;;;54.08;37.88;;;9.20;99.90;;;;;;5111521;28;20195;-74
2022/02/09 19:48:02;;;;;;;83.90;50.55;;;9.20;99.90;;;;;;5111071;28;20213;-68
2022/02/09 19:50:47;;;;;;;108.05;55.58;;;9.10;99.90;;;;;;5110193;28;20191;-68
2022/02/09 19:53:37;;;;;;;103.55;56.78;;;9.00;99.90;;;;;;5109814;28;20673;-74
2022/02/09 19:56:13;;;;;;;102.05;58.72;;;8.80;99.90;;;;;;5109871;28;20184;-74
2022/02/09 19:58:54;;;;;;;111.85;63.65;;;8.70;99.90;;;;;;5109836;28;20255;-74
2022/02/09 20:01:23;;;;;;;71.20;46.88;;;8.60;99.90;;;;;;5110000;28;20179;-74
2022/02/09 20:03:51;;;;;;;170.18;89.93;;;8.50;99.90;;;;;;5109934;28;20336;-74
2022/02/09 20:06:24;;;;;;;131.75;78.45;;;8.40;99.90;;;;;;5109554;28;20553;-69
2022/02/09 20:08:54;;;;;;;116.65;72.85;;;8.30;99.90;;;;;;5109452;28;20282;-68
2022/02/09 20:11:20;;;;;;;144.10;82.93;;;8.20;99.90;;;;;;5109283;28;20313;-68
2022/02/09 20:13:48;;;;;;;142.40;89.25;;;8.10;99.90;;;;;;5109410;28;20195;-74
2022/02/09 20:16:20;;;;;;;142.70;88.25;;;8.10;99.90;;;;;;5109350;28;20274;-67
2022/02/09 20:18:46;;;;;;;149.68;88.85;;;8.10;99.90;;;;;;5109327;28;20203;-68
2022/02/09 20:21:16;;;;;;;136.80;88.80;;;8.00;99.90;;;;;;5109141;28;20203;-67
2022/02/09 20:23:44;;;;;;;146.98;89.15;;;8.00;99.90;;;;;;5109405;28;20292;-74
2022/02/09 20:26:12;;;;;;;140.80;83.00;;;7.90;99.90;;;;;;5109208;28;20180;-67
2022/02/09 20:28:47;;;;;;;85.35;55.55;;;7.80;99.90;;;;;;5096931;28;20227;-68
2022/02/09 20:31:20;;;;;;;69.35;45.05;;;7.80;99.90;;;;;;5084778;28;20200;-74
2022/02/09 20:33:55;;;;;;;80.75;59.55;;;7.70;99.90;;;;;;5074692;28;20205;-67
2022/02/09 20:36:25;;;;;;;83.30;56.22;;;7.80;99.90;;;;;;5075164;28;20204;-74
2022/02/09 20:38:55;;;;;;;73.40;50.08;;;7.70;99.90;;;;;;5084568;28;20667;-68
2022/02/09 20:41:24;;;;;;;97.85;56.67;;;7.70;99.90;;;;;;5092407;28;20196;-69
2022/02/09 20:44:18;;;;;;;86.32;55.67;;;7.70;99.90;;;;;;5095008;28;20200;-67
2022/02/09 20:46:56;;;;;;;110.10;57.88;;;7.70;99.90;;;;;;5095123;28;20188;-74
2022/02/09 20:49:22;;;;;;;96.82;54.10;;;7.70;99.90;;;;;;5076189;28;20642;-68
2022/02/09 20:51:49;;;;;;;74.97;50.15;;;7.60;99.90;;;;;;5081442;28;20212;-74
2022/02/09 20:54:19;;;;;;;76.72;44.45;;;7.60;99.90;;;;;;5088816;28;20266;-73
2022/02/09 20:56:50;;;;;;;97.88;56.58;;;7.70;99.90;;;;;;5092829;28;20319;-74
2022/02/09 20:59:26;;;;;;;89.20;53.97;;;7.70;99.90;;;;;;5092811;28;20184;-74
2022/02/09 21:02:03;;;;;;;90.43;52.47;;;7.70;99.90;;;;;;5093299;28;20195;-74
2022/02/09 21:04:33;;;;;;;135.80;68.45;;;7.70;99.90;;;;;;5093236;28;20176;-68
2022/02/09 21:07:08;;;;;;;111.78;61.88;;;7.70;99.90;;;;;;5092692;28;20191;-73
2022/02/09 21:12:24;;;;;;;102.65;60.58;;;7.60;99.90;;;;;;5096105;28;20196;-72
2022/02/09 21:15:09;;;;;;;76.90;46.97;;;7.60;99.90;;;;;;5094526;28;20208;-68
2022/02/09 21:20:42;;;;;;;66.82;44.47;;;7.50;99.90;;;;;;5096222;28;20176;-68
2022/02/09 21:23:18;;;;;;;64.50;41.85;;;7.50;99.90;;;;;;5095227;28;20212;-74
2022/02/09 21:26:25;;;;;;;67.28;42.65;;;7.50;99.90;;;;;;5095548;28;20181;-74
2022/02/09 21:29:57;;;;;;;69.88;43.70;;;7.40;99.90;;;;;;5094754;28;20734;-68
2022/02/09 22:01:36;;;;;;;75.80;44.63;;;6.70;99.90;;;;;;5095561;28;20629;-74
2022/02/09 22:20:20;;;;;;;71.32;44.75;;;6.50;99.90;;;;;;5095061;28;20253;-67
2022/02/09 22:28:08;;;;;;;69.57;45.53;;;6.40;99.90;;;;;;5094374;28;20808;-74
2022/02/09 22:50:09;;;;;;;71.00;41.47;;;6.30;99.90;;;;;;5094240;28;20169;-67
2022/02/09 22:55:24;;;;;;;58.53;37.72;;;6.20;99.90;;;;;;5094441;28;20252;-73
2022/02/09 22:57:54;;;;;;;63.45;43.20;;;6.20;99.90;;;;;;5092776;28;20228;-67
2022/02/09 23:03:47;;;;;;;86.53;49.70;;;6.10;99.90;;;;;;5095239;28;20205;-73
2022/02/09 23:06:29;;;;;;;79.15;46.38;;;6.10;99.90;;;;;;5093793;28;20637;-67
2022/02/09 23:11:58;;;;;;;63.67;40.22;;;6.00;99.90;;;;;;5094097;28;20180;-68
2022/02/09 23:14:45;;;;;;;65.07;42.10;;;6.00;99.90;;;;;;5092575;28;20180;-67
2022/02/09 23:23:16;;;;;;;64.95;41.33;;;5.80;99.90;;;;;;5094104;28;20618;-67
